createdAt,value
2018-02-20T00:01:21.057Z,0.00
2018-02-20T00:03:49.179Z,0.00
2018-02-20T00:06:18.049Z,0.00
2018-02-20T00:08:46.139Z,0.00
2018-02-20T00:11:15.016Z,-0.10
2018-02-20T00:13:43.087Z,0.10
2018-02-20T00:16:11.189Z,0.30
2018-02-20T00:18:39.294Z,0.30
2018-02-20T00:21:07.411Z,0.40
2018-02-20T00:23:35.509Z,0.40
2018-02-20T00:26:03.605Z,0.20
2018-02-20T00:28:31.710Z,-0.10
2018-02-20T00:30:59.824Z,-0.20
2018-02-20T00:33:27.916Z,-0.40
2018-02-20T00:35:56.003Z,-0.40
2018-02-20T00:38:24.117Z,-0.50
2018-02-20T00:40:52.228Z,-0.60
2018-02-20T00:43:20.348Z,-0.70
2018-02-20T00:45:48.445Z,-0.40
2018-02-20T00:48:17.313Z,-0.50
2018-02-20T00:50:45.403Z,-0.50
2018-02-20T00:53:14.286Z,-0.50
2018-02-20T00:55:43.154Z,-0.60
2018-02-20T00:58:11.258Z,-0.70
2018-02-20T01:00:40.208Z,-0.70
2018-02-20T01:03:09.260Z,-0.80
2018-02-20T01:05:37.372Z,-0.60
2018-02-20T01:08:05.461Z,-0.40
2018-02-20T01:10:33.625Z,-0.30
2018-02-20T01:13:01.754Z,-0.50
2018-02-20T01:15:33.207Z,-0.50
2018-02-20T01:18:01.324Z,-0.60
2018-02-20T01:20:29.420Z,-0.80
2018-02-20T01:22:57.537Z,-0.80
2018-02-20T01:25:26.576Z,-0.90
2018-02-20T01:27:54.653Z,-0.90
2018-02-20T01:30:22.770Z,-1.10
2018-02-20T01:32:50.863Z,-1.00
2018-02-20T01:35:18.959Z,-0.90
2018-02-20T01:37:47.098Z,-0.90
2018-02-20T01:40:15.203Z,-1.00
2018-02-20T01:42:43.300Z,-1.10
2018-02-20T01:45:11.384Z,-0.90
2018-02-20T01:47:40.258Z,-0.90
2018-02-20T01:50:08.356Z,-0.70
2018-02-20T01:52:36.446Z,-0.60
2018-02-20T01:55:04.536Z,-0.50
2018-02-20T01:57:32.640Z,-0.40
2018-02-20T02:00:00.741Z,-0.50
2018-02-20T02:02:28.855Z,-0.50
2018-02-20T02:04:56.951Z,-0.70
2018-02-20T02:07:25.061Z,-1.00
2018-02-20T02:09:53.173Z,-1.30
2018-02-20T02:12:21.275Z,-1.40
2018-02-20T02:14:49.391Z,-1.40
2018-02-20T02:17:17.508Z,-1.40
2018-02-20T02:19:45.611Z,-1.40
2018-02-20T02:22:14.492Z,-1.40
2018-02-20T02:24:42.580Z,-1.40
2018-02-20T02:27:11.457Z,-1.40
2018-02-20T02:29:40.336Z,-1.40
2018-02-20T02:32:08.449Z,-1.50
2018-02-20T02:34:36.580Z,-1.40
2018-02-20T02:37:04.704Z,-1.50
2018-02-20T02:39:32.808Z,-1.70
2018-02-20T02:42:00.912Z,-1.70
2018-02-20T02:44:29.818Z,-1.60
2018-02-20T02:46:58.678Z,-1.80
2018-02-20T02:49:26.803Z,-1.80
2018-02-20T02:51:54.911Z,-1.80
2018-02-20T02:54:23.017Z,-1.70
2018-02-20T02:56:51.904Z,-1.50
2018-02-20T02:59:20.021Z,-1.50
2018-02-20T03:01:48.146Z,-1.50
2018-02-20T03:04:17.012Z,-1.50
2018-02-20T03:06:45.124Z,-1.50
2018-02-20T03:09:13.989Z,-1.70
2018-02-20T03:11:42.097Z,-1.70
2018-02-20T03:14:10.204Z,-1.90
2018-02-20T03:16:38.317Z,-1.80
2018-02-20T03:19:06.406Z,-1.70
2018-02-20T03:21:35.259Z,-1.70
2018-02-20T03:24:03.380Z,-1.80
2018-02-20T03:26:31.506Z,-1.90
2018-02-20T03:28:59.609Z,-1.90
2018-02-20T03:31:28.507Z,-1.80
2018-02-20T03:33:57.367Z,-1.80
2018-02-20T03:36:25.450Z,-1.90
2018-02-20T03:38:53.582Z,-1.90
2018-02-20T03:41:22.426Z,-1.90
2018-02-20T03:43:51.311Z,-1.90
2018-02-20T03:46:20.172Z,-1.90
2018-02-20T03:48:48.266Z,-1.80
2018-02-20T03:51:17.156Z,-1.80
2018-02-20T03:53:45.248Z,-1.90
2018-02-20T03:56:13.364Z,-1.80
2018-02-20T03:58:41.475Z,-1.80
2018-02-20T04:01:13.880Z,-1.90
2018-02-20T04:03:41.987Z,-1.90
2018-02-20T04:06:10.077Z,-1.80
2018-02-20T04:08:38.197Z,-1.90
2018-02-20T04:11:06.311Z,-1.90
2018-02-20T04:13:34.416Z,-1.80
2018-02-20T04:16:03.291Z,-1.70
2018-02-20T04:18:31.413Z,-1.80
2018-02-20T04:20:59.506Z,-1.80
2018-02-20T04:23:27.627Z,-1.60
2018-02-20T04:25:55.729Z,-1.70
2018-02-20T04:28:23.843Z,-1.60
2018-02-20T04:30:51.954Z,-1.60
2018-02-20T04:33:20.824Z,-1.60
2018-02-20T04:35:48.943Z,-1.80
2018-02-20T04:38:17.066Z,-1.80
2018-02-20T04:40:45.186Z,-1.80
2018-02-20T04:43:13.308Z,-1.80
2018-02-20T04:45:41.427Z,-1.70
2018-02-20T04:48:09.543Z,-1.60
2018-02-20T04:50:37.658Z,-1.60
2018-02-20T04:53:05.763Z,-1.80
2018-02-20T04:55:33.856Z,-1.80
2018-02-20T04:58:01.957Z,-2.00
2018-02-20T05:00:30.817Z,-2.10
2018-02-20T05:02:58.945Z,-2.10
2018-02-20T05:05:27.054Z,-2.20
2018-02-20T05:07:55.171Z,-2.10
2018-02-20T05:10:24.040Z,-2.10
2018-02-20T05:12:52.177Z,-2.20
2018-02-20T05:15:20.259Z,-2.20
2018-02-20T05:17:50.320Z,-2.30
2018-02-20T05:20:19.216Z,-2.10
2018-02-20T05:22:48.156Z,-2.00
2018-02-20T05:25:16.993Z,-1.80
2018-02-20T05:27:45.850Z,-1.80
2018-02-20T05:30:13.980Z,-1.80
2018-02-20T05:32:42.088Z,-1.90
2018-02-20T05:35:10.180Z,-2.00
2018-02-20T05:37:38.298Z,-2.10
2018-02-20T05:40:06.391Z,-2.00
2018-02-20T05:42:34.492Z,-2.20
2018-02-20T05:45:02.600Z,-2.30
2018-02-20T05:47:30.697Z,-2.30
2018-02-20T05:49:58.812Z,-2.50
2018-02-20T05:52:26.946Z,-2.60
2018-02-20T05:54:55.067Z,-2.60
2018-02-20T05:57:23.163Z,-2.60
2018-02-20T05:59:51.284Z,-2.50
2018-02-20T06:02:19.395Z,-2.40
2018-02-20T06:04:47.520Z,-2.10
2018-02-20T06:07:15.619Z,-2.00
2018-02-20T06:09:43.760Z,-1.90
2018-02-20T06:12:11.884Z,-1.90
2018-02-20T06:14:39.977Z,-2.00
2018-02-20T06:17:08.091Z,-2.20
2018-02-20T06:19:36.200Z,-2.30
2018-02-20T06:22:04.287Z,-2.30
2018-02-20T06:24:33.161Z,-2.30
2018-02-20T06:27:01.292Z,-2.40
2018-02-20T06:29:30.172Z,-2.30
2018-02-20T06:31:58.293Z,-2.20
2018-02-20T06:34:26.400Z,-2.20
2018-02-20T06:36:55.271Z,-2.20
2018-02-20T06:39:23.369Z,-2.10
2018-02-20T06:41:51.496Z,-2.10
2018-02-20T06:44:19.596Z,-2.30
2018-02-20T06:46:48.483Z,-2.40
2018-02-20T06:49:17.345Z,-2.50
2018-02-20T06:51:45.452Z,-2.40
2018-02-20T06:54:14.328Z,-2.60
2018-02-20T06:56:42.472Z,-2.70
2018-02-20T06:59:10.576Z,-2.50
2018-02-20T07:01:38.686Z,-2.30
2018-02-20T07:04:06.812Z,-2.10
2018-02-20T07:06:34.939Z,-2.00
2018-02-20T07:09:03.046Z,-2.20
2018-02-20T07:11:31.169Z,-2.40
2018-02-20T07:13:59.273Z,-2.50
2018-02-20T07:16:27.380Z,-2.70
2018-02-20T07:18:55.473Z,-2.50
2018-02-20T07:21:23.592Z,-2.50
2018-02-20T07:23:51.679Z,-2.40
2018-02-20T07:26:19.793Z,-2.30
2018-02-20T07:28:48.685Z,-2.20
2018-02-20T07:31:17.574Z,-2.00
2018-02-20T07:33:46.436Z,-2.10
2018-02-20T07:36:14.561Z,-2.20
2018-02-20T07:38:42.669Z,-2.20
2018-02-20T07:41:10.759Z,-2.20
2018-02-20T07:43:38.883Z,-2.10
2018-02-20T07:46:06.988Z,-2.10
2018-02-20T07:48:35.116Z,-2.00
2018-02-20T07:51:03.229Z,-1.90
2018-02-20T07:53:31.360Z,-1.80
2018-02-20T07:55:59.445Z,-1.80
2018-02-20T07:58:27.570Z,-1.70
2018-02-20T08:00:55.664Z,-1.60
2018-02-20T08:03:23.791Z,-1.60
2018-02-20T08:05:51.903Z,-1.50
2018-02-20T08:08:20.012Z,-1.50
2018-02-20T08:10:48.134Z,-1.40
2018-02-20T08:13:16.235Z,-1.40
2018-02-20T08:15:44.361Z,-1.30
2018-02-20T08:18:12.476Z,-1.20
2018-02-20T08:20:40.592Z,-1.10
2018-02-20T08:23:08.692Z,-1.00
2018-02-20T08:25:36.793Z,-0.90
2018-02-20T08:28:05.675Z,-0.90
2018-02-20T08:30:34.576Z,-0.90
2018-02-20T08:33:02.686Z,-0.80
2018-02-20T08:35:30.780Z,-0.80
2018-02-20T08:37:58.910Z,-0.70
2018-02-20T08:40:27.040Z,-0.60
2018-02-20T08:42:55.171Z,-0.60
2018-02-20T08:45:24.211Z,-0.50
2018-02-20T08:47:52.308Z,-0.40
2018-02-20T08:50:20.420Z,-0.30
2018-02-20T08:52:48.516Z,-0.30
2018-02-20T08:55:16.626Z,-0.20
2018-02-20T08:57:44.728Z,-0.20
2018-02-20T09:00:12.832Z,-0.20
2018-02-20T09:02:40.950Z,-0.10
2018-02-20T09:05:09.081Z,-0.10
2018-02-20T09:07:37.175Z,0.00
2018-02-20T09:10:05.263Z,0.00
2018-02-20T09:12:33.364Z,0.10
2018-02-20T09:15:01.476Z,0.10
2018-02-20T09:17:29.587Z,0.20
2018-02-20T09:19:57.692Z,0.30
2018-02-20T09:22:25.797Z,0.30
2018-02-20T09:24:53.904Z,0.30
2018-02-20T09:27:22.028Z,0.30
2018-02-20T09:29:50.115Z,0.40
2018-02-20T09:32:18.220Z,0.40
2018-02-20T09:34:46.343Z,0.50
2018-02-20T09:37:14.449Z,0.50
2018-02-20T09:39:43.318Z,0.50
2018-02-20T09:42:11.430Z,0.60
2018-02-20T09:44:39.527Z,0.70
2018-02-20T09:47:07.632Z,0.70
2018-02-20T09:49:35.797Z,0.80
2018-02-20T09:52:04.611Z,0.80
2018-02-20T09:54:32.710Z,0.40
2018-02-20T09:57:00.822Z,0.80
2018-02-20T09:59:28.920Z,0.90
2018-02-20T10:01:57.023Z,1.00
2018-02-20T10:04:25.901Z,1.10
2018-02-20T10:06:54.777Z,1.10
2018-02-20T10:09:22.874Z,1.10
2018-02-20T10:11:52.775Z,1.20
2018-02-20T10:14:20.880Z,1.20
2018-02-20T10:16:48.991Z,1.30
2018-02-20T10:19:17.090Z,1.30
2018-02-20T10:21:45.958Z,1.40
2018-02-20T10:24:14.041Z,1.40
2018-02-20T10:26:42.170Z,1.40
2018-02-20T10:29:10.259Z,1.50
2018-02-20T10:31:38.355Z,1.50
2018-02-20T10:34:06.481Z,1.60
2018-02-20T10:36:34.634Z,1.70
2018-02-20T10:39:04.624Z,1.70
2018-02-20T10:41:32.736Z,1.80
2018-02-20T10:44:00.892Z,1.80
2018-02-20T10:46:28.998Z,1.80
2018-02-20T10:48:57.110Z,1.90
2018-02-20T10:51:25.229Z,1.90
2018-02-20T10:53:53.333Z,1.90
2018-02-20T10:56:21.438Z,1.90
2018-02-20T10:58:49.545Z,1.90
2018-02-20T11:01:17.626Z,2.00
2018-02-20T11:03:45.754Z,2.10
2018-02-20T11:06:13.855Z,2.20
2018-02-20T11:08:42.003Z,2.30
2018-02-20T11:11:10.153Z,2.30
2018-02-20T11:13:38.244Z,2.30
2018-02-20T11:16:07.156Z,2.30
2018-02-20T11:18:36.033Z,2.40
2018-02-20T11:21:04.136Z,2.50
2018-02-20T11:23:32.256Z,2.60
2018-02-20T11:26:00.363Z,2.50
2018-02-20T11:28:28.450Z,2.40
2018-02-20T11:30:56.612Z,2.40
2018-02-20T11:33:24.663Z,2.40
2018-02-20T11:35:53.533Z,2.60
2018-02-20T11:38:21.628Z,2.60
2018-02-20T11:40:50.536Z,2.60
2018-02-20T11:43:21.473Z,2.80
2018-02-20T11:45:50.348Z,2.90
2018-02-20T11:48:19.229Z,2.90
2018-02-20T11:50:47.322Z,2.90
2018-02-20T11:53:16.184Z,2.90
2018-02-20T11:55:44.276Z,3.00
2018-02-20T11:58:13.159Z,3.00
2018-02-20T12:00:41.246Z,3.10
2018-02-20T12:03:10.121Z,3.20
2018-02-20T12:05:38.209Z,3.30
2018-02-20T12:08:06.320Z,3.30
2018-02-20T12:10:34.414Z,3.40
2018-02-20T12:13:02.536Z,3.40
2018-02-20T12:15:31.415Z,3.50
2018-02-20T12:17:59.525Z,3.40
2018-02-20T12:20:27.649Z,3.50
2018-02-20T12:22:55.771Z,3.60
2018-02-20T12:25:23.891Z,3.60
2018-02-20T12:27:51.973Z,3.70
2018-02-20T12:30:20.872Z,3.70
2018-02-20T12:32:49.746Z,3.80
2018-02-20T12:35:17.848Z,3.90
2018-02-20T12:37:45.954Z,3.90
2018-02-20T12:40:14.046Z,3.90
2018-02-20T12:42:42.127Z,3.80
2018-02-20T12:45:10.255Z,3.90
2018-02-20T12:47:38.360Z,3.90
2018-02-20T12:50:06.452Z,4.00
2018-02-20T12:52:34.607Z,4.00
2018-02-20T12:55:02.703Z,4.00
2018-02-20T12:57:30.799Z,4.00
2018-02-20T12:59:58.904Z,4.00
2018-02-20T13:02:27.016Z,4.00
2018-02-20T13:04:55.101Z,4.10
2018-02-20T13:07:23.971Z,4.10
2018-02-20T13:09:52.070Z,4.20
2018-02-20T13:12:20.919Z,4.30
2018-02-20T13:14:49.030Z,4.30
2018-02-20T13:17:17.892Z,4.30
2018-02-20T13:19:46.028Z,4.20
2018-02-20T13:22:14.154Z,4.20
2018-02-20T13:24:42.254Z,4.30
2018-02-20T13:27:10.394Z,4.50
2018-02-20T13:29:38.518Z,4.50
2018-02-20T13:32:06.625Z,4.90
2018-02-20T13:34:34.715Z,5.10
2018-02-20T13:37:02.819Z,5.50
2018-02-20T13:39:31.830Z,5.80
2018-02-20T13:41:59.956Z,5.90
2018-02-20T13:44:28.055Z,6.10
2018-02-20T13:46:56.161Z,6.20
2018-02-20T13:49:24.290Z,6.30
2018-02-20T13:51:53.154Z,6.10
2018-02-20T13:54:21.277Z,5.90
2018-02-20T13:56:49.390Z,5.60
2018-02-20T13:59:17.500Z,5.40
2018-02-20T14:01:45.591Z,5.30
2018-02-20T14:04:13.703Z,5.40
2018-02-20T14:06:41.835Z,5.30
2018-02-20T14:09:09.946Z,5.20
2018-02-20T14:11:38.048Z,5.10
2018-02-20T14:14:06.147Z,5.00
2018-02-20T14:16:34.272Z,4.90
2018-02-20T14:19:02.361Z,4.90
2018-02-20T14:21:30.443Z,5.00
2018-02-20T14:23:59.326Z,5.10
2018-02-20T14:26:27.432Z,5.00
2018-02-20T14:28:55.524Z,5.20
2018-02-20T14:31:23.641Z,5.30
2018-02-20T14:33:51.741Z,5.40
2018-02-20T14:36:19.857Z,5.40
2018-02-20T14:38:47.955Z,5.40
2018-02-20T14:41:16.095Z,5.40
2018-02-20T14:43:44.187Z,5.30
2018-02-20T14:46:12.296Z,5.30
2018-02-20T14:48:41.232Z,5.30
2018-02-20T14:51:10.267Z,5.30
2018-02-20T14:53:38.396Z,5.30
2018-02-20T14:56:06.472Z,5.20
2018-02-20T14:58:34.580Z,5.10
2018-02-20T15:01:02.718Z,5.20
2018-02-20T15:03:30.825Z,5.30
2018-02-20T15:05:58.920Z,5.30
2018-02-20T15:08:27.034Z,5.20
2018-02-20T15:10:55.140Z,5.20
2018-02-20T15:13:23.270Z,5.20
2018-02-20T15:15:52.336Z,5.20
2018-02-20T15:18:20.451Z,5.10
2018-02-20T15:20:48.593Z,5.20
2018-02-20T15:23:16.721Z,5.20
2018-02-20T15:25:44.821Z,5.20
2018-02-20T15:28:13.699Z,5.20
2018-02-20T15:30:41.809Z,5.10
2018-02-20T15:33:09.928Z,5.00
2018-02-20T15:35:38.045Z,4.90
2018-02-20T15:38:06.186Z,4.80
2018-02-20T15:40:34.293Z,4.70
2018-02-20T15:43:02.408Z,4.70
2018-02-20T15:45:30.511Z,4.50
2018-02-20T15:47:58.605Z,4.40
2018-02-20T15:50:26.732Z,4.30
2018-02-20T15:52:54.868Z,4.20
2018-02-20T15:55:22.981Z,4.20
2018-02-20T15:57:51.079Z,4.10
2018-02-20T16:00:19.952Z,4.10
2018-02-20T16:02:48.051Z,4.10
2018-02-20T16:05:16.147Z,4.10
2018-02-20T16:07:44.268Z,3.90
2018-02-20T16:10:12.374Z,3.90
2018-02-20T16:12:40.494Z,3.80
2018-02-20T16:15:08.588Z,3.70
2018-02-20T16:17:36.721Z,3.70
2018-02-20T16:20:06.457Z,3.70
2018-02-20T16:22:34.560Z,3.60
2018-02-20T16:25:03.429Z,3.60
2018-02-20T16:27:31.568Z,3.50
2018-02-20T16:29:59.675Z,3.40
2018-02-20T16:32:27.760Z,3.40
2018-02-20T16:34:55.874Z,3.40
2018-02-20T16:37:23.965Z,3.30
2018-02-20T16:39:52.080Z,3.30
2018-02-20T16:42:20.180Z,3.20
2018-02-20T16:44:48.318Z,3.10
2018-02-20T16:47:16.484Z,3.10
2018-02-20T16:49:44.568Z,3.00
2018-02-20T16:52:12.735Z,3.00
2018-02-20T16:54:40.849Z,3.00
2018-02-20T16:57:08.938Z,3.00
2018-02-20T16:59:37.068Z,2.90
2018-02-20T17:02:05.172Z,2.90
2018-02-20T17:04:33.308Z,2.90
2018-02-20T17:07:01.396Z,2.80
2018-02-20T17:09:31.337Z,2.80
2018-02-20T17:11:59.429Z,2.80
2018-02-20T17:14:27.538Z,2.70
2018-02-20T17:16:55.660Z,2.60
2018-02-20T17:19:23.777Z,2.60
2018-02-20T17:21:51.897Z,2.50
2018-02-20T17:24:20.006Z,2.50
2018-02-20T17:26:48.180Z,2.50
2018-02-20T17:29:16.249Z,2.50
2018-02-20T17:31:45.263Z,2.40
2018-02-20T17:34:13.356Z,2.30
2018-02-20T17:36:41.488Z,2.30
2018-02-20T17:39:09.580Z,2.30
2018-02-20T17:41:37.699Z,2.20
2018-02-20T17:44:05.785Z,2.20
2018-02-20T17:46:33.888Z,2.30
2018-02-20T17:49:01.989Z,2.20
2018-02-20T17:51:30.102Z,2.20
2018-02-20T17:53:58.199Z,2.20
2018-02-20T17:56:27.209Z,2.20
2018-02-20T17:58:55.310Z,2.20
2018-02-20T18:01:23.424Z,2.20
2018-02-20T18:03:51.506Z,2.10
2018-02-20T18:06:19.609Z,2.10
2018-02-20T18:08:47.736Z,2.10
2018-02-20T18:11:15.832Z,1.90
2018-02-20T18:13:43.964Z,2.00
2018-02-20T18:16:12.082Z,2.00
2018-02-20T18:18:40.165Z,2.00
2018-02-20T18:21:08.287Z,2.00
2018-02-20T18:23:36.416Z,1.90
2018-02-20T18:26:04.520Z,1.90
2018-02-20T18:28:32.620Z,1.90
2018-02-20T18:31:00.742Z,1.90
2018-02-20T18:33:28.852Z,1.90
2018-02-20T18:35:56.936Z,1.90
2018-02-20T18:38:26.097Z,1.90
2018-02-20T18:40:54.946Z,1.80
2018-02-20T18:43:23.061Z,1.70
2018-02-20T18:45:51.923Z,1.70
2018-02-20T18:48:20.069Z,1.70
2018-02-20T18:50:48.164Z,1.70
2018-02-20T18:53:18.209Z,1.70
2018-02-20T18:55:47.089Z,1.70
2018-02-20T18:58:15.980Z,1.70
2018-02-20T19:00:44.878Z,1.70
2018-02-20T19:03:13.768Z,1.70
2018-02-20T19:05:42.634Z,1.70
2018-02-20T19:08:10.748Z,1.70
2018-02-20T19:10:38.864Z,1.70
2018-02-20T19:13:06.966Z,1.70
2018-02-20T19:15:35.163Z,1.70
2018-02-20T19:18:03.270Z,1.70
2018-02-20T19:20:33.465Z,1.70
2018-02-20T19:23:07.347Z,1.60
2018-02-20T19:25:39.451Z,1.60
2018-02-20T19:28:07.601Z,1.60
2018-02-20T19:30:35.773Z,1.50
2018-02-20T19:33:03.906Z,1.50
2018-02-20T19:35:32.106Z,1.50
2018-02-20T19:38:02.687Z,1.50
2018-02-20T19:40:31.704Z,1.50
2018-02-20T19:42:59.954Z,1.50
2018-02-20T19:45:28.120Z,1.40
2018-02-20T19:47:56.296Z,1.40
2018-02-20T19:50:24.513Z,1.40
2018-02-20T19:52:52.669Z,1.40
2018-02-20T19:55:20.908Z,1.40
2018-02-20T19:57:49.028Z,1.40
2018-02-20T20:00:20.575Z,1.40
2018-02-20T20:02:48.747Z,1.40
2018-02-20T20:05:16.963Z,1.30
2018-02-20T20:07:45.884Z,1.30
2018-02-20T20:10:16.012Z,1.30
2018-02-20T20:12:46.183Z,1.30
2018-02-20T20:15:18.884Z,1.20
2018-02-20T20:17:47.771Z,1.20
2018-02-20T20:20:21.296Z,1.20
2018-02-20T20:22:49.412Z,1.20
2018-02-20T20:25:17.558Z,1.20
2018-02-20T20:27:48.501Z,1.20
2018-02-20T20:30:16.596Z,1.10
2018-02-20T20:32:44.700Z,1.20
2018-02-20T20:35:16.731Z,1.10
2018-02-20T20:37:44.855Z,1.10
2018-02-20T20:40:13.744Z,1.10
2018-02-20T20:42:41.884Z,1.10
2018-02-20T20:45:09.976Z,1.10
2018-02-20T20:47:38.835Z,1.00
2018-02-20T20:50:06.943Z,1.10
2018-02-20T20:52:35.845Z,1.10
2018-02-20T20:55:03.988Z,1.00
2018-02-20T20:57:32.096Z,1.00
2018-02-20T21:00:00.200Z,1.00
2018-02-20T21:02:28.310Z,1.00
2018-02-20T21:04:57.186Z,1.00
2018-02-20T21:07:25.324Z,1.00
2018-02-20T21:09:53.413Z,0.90
2018-02-20T21:12:21.602Z,0.90
2018-02-20T21:14:49.744Z,0.80
2018-02-20T21:17:17.872Z,0.80
2018-02-20T21:19:46.753Z,0.80
2018-02-20T21:22:15.660Z,0.80
2018-02-20T21:24:44.531Z,0.70
2018-02-20T21:27:12.717Z,0.70
2018-02-20T21:29:40.847Z,0.70
2018-02-20T21:32:08.952Z,0.70
2018-02-20T21:34:37.837Z,0.60
2018-02-20T21:37:05.968Z,0.60
2018-02-20T21:39:34.066Z,0.60
2018-02-20T21:42:02.169Z,0.60
2018-02-20T21:44:30.290Z,0.60
2018-02-20T21:46:58.395Z,0.50
2018-02-20T21:49:26.505Z,0.60
2018-02-20T21:51:54.873Z,0.50
2018-02-20T21:54:23.756Z,0.50
2018-02-20T21:56:51.845Z,0.60
2018-02-20T21:59:19.960Z,0.50
2018-02-20T22:01:49.120Z,0.50
2018-02-20T22:04:17.273Z,0.50
2018-02-20T22:06:45.410Z,0.50
2018-02-20T22:09:13.544Z,0.50
2018-02-20T22:11:41.693Z,0.50
2018-02-20T22:14:10.558Z,0.50
2018-02-20T22:16:38.682Z,0.40
2018-02-20T22:19:06.769Z,0.40
2018-02-20T22:21:34.884Z,0.50
2018-02-20T22:24:03.763Z,0.40
2018-02-20T22:26:33.945Z,0.40
2018-02-20T22:29:02.077Z,0.40
2018-02-20T22:31:30.236Z,0.40
2018-02-20T22:33:58.416Z,0.40
2018-02-20T22:36:26.552Z,0.30
2018-02-20T22:38:54.675Z,0.30
2018-02-20T22:41:23.552Z,0.30
2018-02-20T22:43:51.663Z,0.30
2018-02-20T22:46:19.757Z,0.10
2018-02-20T22:48:47.878Z,0.10
2018-02-20T22:51:15.984Z,0.10
2018-02-20T22:53:44.102Z,0.00
2018-02-20T22:56:12.225Z,0.00
2018-02-20T22:58:40.339Z,0.00
2018-02-20T23:01:08.453Z,0.00
2018-02-20T23:03:36.574Z,0.00
2018-02-20T23:06:04.669Z,0.00
2018-02-20T23:08:32.771Z,0.00
2018-02-20T23:11:00.882Z,-0.10
2018-02-20T23:13:29.000Z,-0.10
2018-02-20T23:15:57.098Z,-0.10
2018-02-20T23:18:25.967Z,-0.20
2018-02-20T23:20:54.077Z,-0.10
2018-02-20T23:23:22.191Z,-0.10
2018-02-20T23:25:50.271Z,-0.10
2018-02-20T23:28:18.385Z,-0.20
2018-02-20T23:30:46.492Z,-0.20
2018-02-20T23:33:14.590Z,-0.20
2018-02-20T23:35:42.702Z,-0.20
2018-02-20T23:38:10.812Z,-0.20
2018-02-20T23:40:38.891Z,-0.10
2018-02-20T23:43:07.015Z,-0.20
2018-02-20T23:45:35.875Z,-0.20
2018-02-20T23:48:03.979Z,-0.20
2018-02-20T23:50:32.077Z,-0.20
2018-02-20T23:53:00.177Z,-0.20
2018-02-20T23:55:28.276Z,-0.20
2018-02-20T23:57:57.147Z,-0.20
